CheckWX is a tool to help pilots better visualize weather data.  It is not intended as a substitute for an official pre-flight weather briefing.

12:54:27 UTC

KMHE METAR
Mitchell Municipal Airport
Mitchell, South Dakota, USA
Current

1 hour ago

KMHE 181153Z AUTO 31009KT 10SM CLR M18/M21 A3041 RMK AO2 SLP331 T11781206 11117 21178 53017
Observed
Feb-18 @ 11:53 UTC
Wind
  • 310° at 9 KTS
Visibility
10 SM
Flight Rules
VFR
Cloud Levels
  • Clear skies
Temperature
-18°C / -0°F
Dewpoint
-21°C / -6°F
Humidity
78%
Altimeter
30.41" Hg
Pressure
1033.1 hPa
Previous

2 hours ago

KMHE 181053Z AUTO 32009KT 10SM SCT110 M17/M19 A3039 RMK AO2 SLP321 T11671194
Observed
Feb-18 @ 10:53 UTC
Wind
  • 320° at 9 KTS
Visibility
10 SM
Flight Rules
VFR
Cloud Levels
  • Scattered at 11,000' AGL
Temperature
-17°C / 1°F
Dewpoint
-19°C / -2°F
Humidity
85%
Altimeter
30.39" Hg
Pressure
1032.1 hPa
Previous

3 hours ago

KMHE 180953Z AUTO 30009KT 10SM CLR M16/M19 A3037 RMK AO2 SLP314 T11561189
Observed
Feb-18 @ 09:53 UTC
Wind
  • 300° at 9 KTS
Visibility
10 SM
Flight Rules
VFR
Cloud Levels
  • Clear skies
Temperature
-16°C / 3°F
Dewpoint
-19°C / -2°F
Humidity
78%
Altimeter
30.37" Hg
Pressure
1031.4 hPa